sensor_id;sensor_type;location;lat;lon;timestamp;P1;durP1;ratioP1;P2;durP2;ratioP2
13197;SDS011;6664;52.514;13.440;2023-12-28T00:01:18;4.70;;;3.00;;
13197;SDS011;6664;52.514;13.440;2023-12-28T00:04:05;4.60;;;2.80;;
13197;SDS011;6664;52.514;13.440;2023-12-28T00:06:50;2.13;;;1.97;;
13197;SDS011;6664;52.514;13.440;2023-12-28T00:09:38;5.90;;;2.50;;
13197;SDS011;6664;52.514;13.440;2023-12-28T00:12:24;6.37;;;2.60;;
13197;SDS011;6664;52.514;13.440;2023-12-28T00:15:10;2.27;;;2.07;;
13197;SDS011;6664;52.514;13.440;2023-12-28T00:17:58;2.83;;;2.53;;
13197;SDS011;6664;52.514;13.440;2023-12-28T00:20:44;2.80;;;2.43;;
13197;SDS011;6664;52.514;13.440;2023-12-28T00:23:30;5.37;;;2.80;;
13197;SDS011;6664;52.514;13.440;2023-12-28T00:26:15;7.90;;;2.93;;
13197;SDS011;6664;52.514;13.440;2023-12-28T00:29:06;6.80;;;2.43;;
13197;SDS011;6664;52.514;13.440;2023-12-28T00:31:52;5.97;;;2.43;;
13197;SDS011;6664;52.514;13.440;2023-12-28T00:34:37;3.63;;;2.40;;
13197;SDS011;6664;52.514;13.440;2023-12-28T00:37:26;2.77;;;1.70;;
13197;SDS011;6664;52.514;13.440;2023-12-28T00:40:12;3.63;;;2.10;;
13197;SDS011;6664;52.514;13.440;2023-12-28T00:42:58;12.20;;;2.40;;
13197;SDS011;6664;52.514;13.440;2023-12-28T00:45:48;1.83;;;1.73;;
13197;SDS011;6664;52.514;13.440;2023-12-28T00:48:34;2.57;;;2.00;;
13197;SDS011;6664;52.514;13.440;2023-12-28T00:51:20;3.80;;;2.40;;
13197;SDS011;6664;52.514;13.440;2023-12-28T00:54:06;4.00;;;1.97;;
13197;SDS011;6664;52.514;13.440;2023-12-28T00:56:52;2.93;;;1.80;;
13197;SDS011;6664;52.514;13.440;2023-12-28T00:59:39;4.83;;;2.53;;
13197;SDS011;6664;52.514;13.440;2023-12-28T01:02:24;4.93;;;2.60;;
13197;SDS011;6664;52.514;13.440;2023-12-28T01:05:12;2.53;;;2.30;;
13197;SDS011;6664;52.514;13.440;2023-12-28T01:07:59;3.90;;;1.93;;
13197;SDS011;6664;52.514;13.440;2023-12-28T01:10:45;3.97;;;2.10;;
13197;SDS011;6664;52.514;13.440;2023-12-28T01:13:30;3.63;;;2.40;;
13197;SDS011;6664;52.514;13.440;2023-12-28T01:16:16;2.10;;;1.83;;
13197;SDS011;6664;52.514;13.440;2023-12-28T01:19:01;2.57;;;1.70;;
13197;SDS011;6664;52.514;13.440;2023-12-28T01:21:47;2.13;;;2.03;;
13197;SDS011;6664;52.514;13.440;2023-12-28T01:24:35;2.27;;;1.60;;
13197;SDS011;6664;52.514;13.440;2023-12-28T01:27:21;3.53;;;2.20;;
13197;SDS011;6664;52.514;13.440;2023-12-28T01:30:06;6.53;;;2.53;;
13197;SDS011;6664;52.514;13.440;2023-12-28T01:32:55;2.40;;;1.93;;
13197;SDS011;6664;52.514;13.440;2023-12-28T01:35:43;1.37;;;1.37;;
13197;SDS011;6664;52.514;13.440;2023-12-28T01:38:31;1.97;;;1.87;;
13197;SDS011;6664;52.514;13.440;2023-12-28T01:41:16;2.50;;;1.80;;
13197;SDS011;6664;52.514;13.440;2023-12-28T01:44:03;3.43;;;2.33;;
13197;SDS011;6664;52.514;13.440;2023-12-28T01:46:48;2.33;;;2.13;;
13197;SDS011;6664;52.514;13.440;2023-12-28T01:49:35;2.70;;;2.20;;
13197;SDS011;6664;52.514;13.440;2023-12-28T01:52:24;3.00;;;1.83;;
13197;SDS011;6664;52.514;13.440;2023-12-28T01:55:09;1.27;;;1.17;;
13197;SDS011;6664;52.514;13.440;2023-12-28T01:57:55;2.07;;;1.87;;
13197;SDS011;6664;52.514;13.440;2023-12-28T02:00:45;3.07;;;1.90;;
13197;SDS011;6664;52.514;13.440;2023-12-28T02:03:31;1.83;;;1.73;;
13197;SDS011;6664;52.514;13.440;2023-12-28T02:06:17;1.67;;;1.57;;
13197;SDS011;6664;52.514;13.440;2023-12-28T02:09:04;8.10;;;2.23;;
13197;SDS011;6664;52.514;13.440;2023-12-28T02:11:50;1.77;;;1.67;;
13197;SDS011;6664;52.514;13.440;2023-12-28T02:14:36;2.03;;;1.80;;
13197;SDS011;6664;52.514;13.440;2023-12-28T02:17:33;1.50;;;1.40;;
13197;SDS011;6664;52.514;13.440;2023-12-28T02:20:20;3.30;;;1.67;;
13197;SDS011;6664;52.514;13.440;2023-12-28T02:23:06;3.97;;;2.07;;
13197;SDS011;6664;52.514;13.440;2023-12-28T02:25:54;2.23;;;1.50;;
13197;SDS011;6664;52.514;13.440;2023-12-28T02:28:39;1.50;;;1.23;;
13197;SDS011;6664;52.514;13.440;2023-12-28T02:34:33;4.03;;;1.43;;
13197;SDS011;6664;52.514;13.440;2023-12-28T02:37:25;1.90;;;1.63;;
13197;SDS011;6664;52.514;13.440;2023-12-28T02:40:12;1.90;;;1.80;;
13197;SDS011;6664;52.514;13.440;2023-12-28T02:43:03;2.40;;;1.60;;
13197;SDS011;6664;52.514;13.440;2023-12-28T02:45:49;1.00;;;1.00;;
13197;SDS011;6664;52.514;13.440;2023-12-28T02:48:35;1.80;;;1.70;;
13197;SDS011;6664;52.514;13.440;2023-12-28T02:51:24;1.43;;;1.30;;
13197;SDS011;6664;52.514;13.440;2023-12-28T02:54:12;1.43;;;1.10;;
13197;SDS011;6664;52.514;13.440;2023-12-28T02:56:59;1.50;;;1.20;;
13197;SDS011;6664;52.514;13.440;2023-12-28T02:59:45;1.20;;;1.10;;
13197;SDS011;6664;52.514;13.440;2023-12-28T03:02:30;1.10;;;1.00;;
13197;SDS011;6664;52.514;13.440;2023-12-28T03:05:17;1.33;;;1.23;;
13197;SDS011;6664;52.514;13.440;2023-12-28T03:08:03;1.20;;;1.10;;
13197;SDS011;6664;52.514;13.440;2023-12-28T03:10:49;1.23;;;1.13;;
13197;SDS011;6664;52.514;13.440;2023-12-28T03:13:34;2.13;;;1.10;;
13197;SDS011;6664;52.514;13.440;2023-12-28T03:16:22;3.70;;;0.90;;
13197;SDS011;6664;52.514;13.440;2023-12-28T03:19:08;1.77;;;1.40;;
13197;SDS011;6664;52.514;13.440;2023-12-28T03:21:56;2.93;;;0.80;;
13197;SDS011;6664;52.514;13.440;2023-12-28T03:24:42;1.43;;;1.30;;
13197;SDS011;6664;52.514;13.440;2023-12-28T03:27:27;2.30;;;1.37;;
13197;SDS011;6664;52.514;13.440;2023-12-28T03:30:13;0.90;;;0.90;;
13197;SDS011;6664;52.514;13.440;2023-12-28T03:32:59;1.20;;;1.10;;
13197;SDS011;6664;52.514;13.440;2023-12-28T03:35:49;1.50;;;0.90;;
13197;SDS011;6664;52.514;13.440;2023-12-28T03:38:36;2.80;;;0.93;;
13197;SDS011;6664;52.514;13.440;2023-12-28T03:41:23;2.70;;;0.87;;
13197;SDS011;6664;52.514;13.440;2023-12-28T03:44:09;1.67;;;0.90;;
13197;SDS011;6664;52.514;13.440;2023-12-28T03:46:57;0.93;;;0.93;;
13197;SDS011;6664;52.514;13.440;2023-12-28T03:49:45;0.67;;;0.67;;
13197;SDS011;6664;52.514;13.440;2023-12-28T03:52:30;1.70;;;1.13;;
13197;SDS011;6664;52.514;13.440;2023-12-28T03:55:16;1.10;;;0.90;;
13197;SDS011;6664;52.514;13.440;2023-12-28T03:58:02;1.80;;;1.10;;
13197;SDS011;6664;52.514;13.440;2023-12-28T04:00:47;1.00;;;0.90;;
13197;SDS011;6664;52.514;13.440;2023-12-28T04:03:33;0.93;;;0.93;;
13197;SDS011;6664;52.514;13.440;2023-12-28T04:06:21;1.67;;;1.10;;
13197;SDS011;6664;52.514;13.440;2023-12-28T04:09:07;1.87;;;1.17;;
13197;SDS011;6664;52.514;13.440;2023-12-28T04:11:53;1.87;;;1.00;;
13197;SDS011;6664;52.514;13.440;2023-12-28T04:14:38;1.37;;;1.27;;
13197;SDS011;6664;52.514;13.440;2023-12-28T04:17:24;1.33;;;1.00;;
13197;SDS011;6664;52.514;13.440;2023-12-28T04:20:10;1.10;;;1.00;;
13197;SDS011;6664;52.514;13.440;2023-12-28T04:22:56;2.40;;;0.87;;
13197;SDS011;6664;52.514;13.440;2023-12-28T04:25:44;0.93;;;0.90;;
13197;SDS011;6664;52.514;13.440;2023-12-28T04:28:32;1.30;;;1.00;;
13197;SDS011;6664;52.514;13.440;2023-12-28T04:31:19;1.47;;;1.00;;
13197;SDS011;6664;52.514;13.440;2023-12-28T04:34:05;1.07;;;1.00;;
13197;SDS011;6664;52.514;13.440;2023-12-28T04:36:51;0.83;;;0.83;;
13197;SDS011;6664;52.514;13.440;2023-12-28T04:39:37;2.40;;;1.10;;
13197;SDS011;6664;52.514;13.440;2023-12-28T04:42:23;1.03;;;0.80;;
13197;SDS011;6664;52.514;13.440;2023-12-28T04:45:09;1.13;;;1.07;;
13197;SDS011;6664;52.514;13.440;2023-12-28T04:47:57;1.10;;;1.00;;
13197;SDS011;6664;52.514;13.440;2023-12-28T04:50:43;2.67;;;0.90;;
13197;SDS011;6664;52.514;13.440;2023-12-28T04:53:29;3.60;;;1.00;;
13197;SDS011;6664;52.514;13.440;2023-12-28T04:56:18;1.20;;;0.97;;
13197;SDS011;6664;52.514;13.440;2023-12-28T04:59:04;0.77;;;0.77;;
13197;SDS011;6664;52.514;13.440;2023-12-28T05:01:49;1.80;;;0.80;;
13197;SDS011;6664;52.514;13.440;2023-12-28T05:04:40;1.60;;;1.07;;
13197;SDS011;6664;52.514;13.440;2023-12-28T05:07:29;0.97;;;0.93;;
13197;SDS011;6664;52.514;13.440;2023-12-28T05:10:14;2.77;;;1.07;;
13197;SDS011;6664;52.514;13.440;2023-12-28T05:13:00;0.80;;;0.80;;
13197;SDS011;6664;52.514;13.440;2023-12-28T05:15:46;0.83;;;0.80;;
13197;SDS011;6664;52.514;13.440;2023-12-28T05:18:32;2.20;;;0.90;;
13197;SDS011;6664;52.514;13.440;2023-12-28T05:21:17;1.27;;;0.90;;
13197;SDS011;6664;52.514;13.440;2023-12-28T05:24:03;1.10;;;1.10;;
13197;SDS011;6664;52.514;13.440;2023-12-28T05:26:49;0.90;;;0.90;;
13197;SDS011;6664;52.514;13.440;2023-12-28T05:29:34;1.10;;;1.10;;
13197;SDS011;6664;52.514;13.440;2023-12-28T05:32:20;0.90;;;0.90;;
13197;SDS011;6664;52.514;13.440;2023-12-28T05:35:06;1.17;;;1.03;;
13197;SDS011;6664;52.514;13.440;2023-12-28T05:37:52;0.90;;;0.87;;
13197;SDS011;6664;52.514;13.440;2023-12-28T05:40:42;0.93;;;0.93;;
13197;SDS011;6664;52.514;13.440;2023-12-28T05:43:29;2.73;;;1.17;;
13197;SDS011;6664;52.514;13.440;2023-12-28T05:46:14;1.33;;;1.23;;
13197;SDS011;6664;52.514;13.440;2023-12-28T05:49:03;0.90;;;0.90;;
13197;SDS011;6664;52.514;13.440;2023-12-28T05:51:48;1.00;;;1.00;;
13197;SDS011;6664;52.514;13.440;2023-12-28T05:54:34;0.70;;;0.70;;
13197;SDS011;6664;52.514;13.440;2023-12-28T05:57:22;1.10;;;1.00;;
13197;SDS011;6664;52.514;13.440;2023-12-28T06:00:15;1.33;;;1.03;;
13197;SDS011;6664;52.514;13.440;2023-12-28T06:03:01;1.27;;;1.17;;
13197;SDS011;6664;52.514;13.440;2023-12-28T06:05:47;0.80;;;0.80;;
13197;SDS011;6664;52.514;13.440;2023-12-28T06:08:32;2.87;;;1.10;;
13197;SDS011;6664;52.514;13.440;2023-12-28T06:11:18;1.57;;;1.07;;
13197;SDS011;6664;52.514;13.440;2023-12-28T06:14:03;1.20;;;1.10;;
13197;SDS011;6664;52.514;13.440;2023-12-28T06:16:49;0.90;;;0.90;;
13197;SDS011;6664;52.514;13.440;2023-12-28T06:19:35;0.87;;;0.87;;
13197;SDS011;6664;52.514;13.440;2023-12-28T06:22:21;1.63;;;0.90;;
13197;SDS011;6664;52.514;13.440;2023-12-28T06:25:06;1.10;;;1.00;;
13197;SDS011;6664;52.514;13.440;2023-12-28T06:27:54;3.43;;;0.90;;
13197;SDS011;6664;52.514;13.440;2023-12-28T06:30:42;0.97;;;0.97;;
13197;SDS011;6664;52.514;13.440;2023-12-28T06:33:30;0.93;;;0.80;;
13197;SDS011;6664;52.514;13.440;2023-12-28T06:36:17;1.10;;;1.10;;
13197;SDS011;6664;52.514;13.440;2023-12-28T06:39:03;2.90;;;1.10;;
13197;SDS011;6664;52.514;13.440;2023-12-28T06:41:49;1.03;;;1.03;;
13197;SDS011;6664;52.514;13.440;2023-12-28T06:44:37;1.13;;;1.03;;
13197;SDS011;6664;52.514;13.440;2023-12-28T06:47:22;0.97;;;0.93;;
13197;SDS011;6664;52.514;13.440;2023-12-28T06:50:10;1.23;;;1.07;;
13197;SDS011;6664;52.514;13.440;2023-12-28T06:52:58;1.13;;;1.13;;
13197;SDS011;6664;52.514;13.440;2023-12-28T06:55:45;1.03;;;0.93;;
13197;SDS011;6664;52.514;13.440;2023-12-28T06:58:30;2.53;;;0.97;;
13197;SDS011;6664;52.514;13.440;2023-12-28T07:01:16;1.00;;;0.90;;
13197;SDS011;6664;52.514;13.440;2023-12-28T07:04:02;3.27;;;0.90;;
13197;SDS011;6664;52.514;13.440;2023-12-28T07:06:49;3.53;;;0.97;;
13197;SDS011;6664;52.514;13.440;2023-12-28T07:09:35;1.37;;;0.80;;
13197;SDS011;6664;52.514;13.440;2023-12-28T07:12:22;1.13;;;1.03;;
13197;SDS011;6664;52.514;13.440;2023-12-28T07:15:08;1.20;;;1.10;;
13197;SDS011;6664;52.514;13.440;2023-12-28T07:17:58;1.77;;;1.13;;
13197;SDS011;6664;52.514;13.440;2023-12-28T07:20:47;1.90;;;1.00;;
13197;SDS011;6664;52.514;13.440;2023-12-28T07:23:33;8.20;;;1.10;;
13197;SDS011;6664;52.514;13.440;2023-12-28T07:26:18;1.03;;;0.93;;
13197;SDS011;6664;52.514;13.440;2023-12-28T07:29:04;1.53;;;1.03;;
13197;SDS011;6664;52.514;13.440;2023-12-28T07:31:50;1.27;;;1.17;;
13197;SDS011;6664;52.514;13.440;2023-12-28T07:34:35;1.23;;;1.13;;
13197;SDS011;6664;52.514;13.440;2023-12-28T07:37:21;1.20;;;1.10;;
13197;SDS011;6664;52.514;13.440;2023-12-28T07:40:07;3.60;;;1.00;;
13197;SDS011;6664;52.514;13.440;2023-12-28T07:42:54;1.97;;;0.93;;
13197;SDS011;6664;52.514;13.440;2023-12-28T07:45:41;1.23;;;1.13;;
13197;SDS011;6664;52.514;13.440;2023-12-28T07:48:27;1.83;;;1.07;;
13197;SDS011;6664;52.514;13.440;2023-12-28T07:51:15;3.60;;;1.27;;
13197;SDS011;6664;52.514;13.440;2023-12-28T07:54:01;1.23;;;1.13;;
13197;SDS011;6664;52.514;13.440;2023-12-28T07:56:46;4.00;;;1.13;;
13197;SDS011;6664;52.514;13.440;2023-12-28T07:59:32;1.73;;;1.00;;
13197;SDS011;6664;52.514;13.440;2023-12-28T08:02:17;0.90;;;0.90;;
13197;SDS011;6664;52.514;13.440;2023-12-28T08:05:05;1.03;;;0.93;;
13197;SDS011;6664;52.514;13.440;2023-12-28T08:07:52;1.27;;;0.90;;
13197;SDS011;6664;52.514;13.440;2023-12-28T08:10:37;1.17;;;1.07;;
13197;SDS011;6664;52.514;13.440;2023-12-28T08:13:25;2.00;;;1.30;;
13197;SDS011;6664;52.514;13.440;2023-12-28T08:16:11;1.90;;;1.00;;
13197;SDS011;6664;52.514;13.440;2023-12-28T08:18:57;1.23;;;1.03;;
13197;SDS011;6664;52.514;13.440;2023-12-28T08:21:43;1.30;;;1.20;;
13197;SDS011;6664;52.514;13.440;2023-12-28T08:24:30;1.90;;;1.27;;
13197;SDS011;6664;52.514;13.440;2023-12-28T08:27:17;1.33;;;1.23;;
13197;SDS011;6664;52.514;13.440;2023-12-28T08:30:03;1.17;;;1.07;;
13197;SDS011;6664;52.514;13.440;2023-12-28T08:32:50;2.20;;;1.00;;
13197;SDS011;6664;52.514;13.440;2023-12-28T08:35:35;1.50;;;1.40;;
13197;SDS011;6664;52.514;13.440;2023-12-28T08:38:21;3.63;;;1.20;;
13197;SDS011;6664;52.514;13.440;2023-12-28T08:41:07;3.10;;;1.20;;
13197;SDS011;6664;52.514;13.440;2023-12-28T08:43:54;1.00;;;0.90;;
13197;SDS011;6664;52.514;13.440;2023-12-28T08:46:40;1.50;;;1.40;;
13197;SDS011;6664;52.514;13.440;2023-12-28T08:49:26;1.37;;;1.27;;
13197;SDS011;6664;52.514;13.440;2023-12-28T08:52:14;1.70;;;1.00;;
13197;SDS011;6664;52.514;13.440;2023-12-28T08:55:00;0.87;;;0.87;;
13197;SDS011;6664;52.514;13.440;2023-12-28T08:57:46;1.07;;;1.00;;
13197;SDS011;6664;52.514;13.440;2023-12-28T09:00:31;1.20;;;1.10;;
13197;SDS011;6664;52.514;13.440;2023-12-28T09:03:17;1.87;;;1.17;;
13197;SDS011;6664;52.514;13.440;2023-12-28T09:06:09;1.30;;;1.20;;
13197;SDS011;6664;52.514;13.440;2023-12-28T09:08:55;1.80;;;1.13;;
13197;SDS011;6664;52.514;13.440;2023-12-28T09:11:43;2.37;;;1.60;;
13197;SDS011;6664;52.514;13.440;2023-12-28T09:14:30;1.50;;;1.27;;
13197;SDS011;6664;52.514;13.440;2023-12-28T09:17:16;1.40;;;1.27;;
13197;SDS011;6664;52.514;13.440;2023-12-28T09:20:04;1.60;;;1.20;;
13197;SDS011;6664;52.514;13.440;2023-12-28T09:22:51;1.17;;;1.07;;
13197;SDS011;6664;52.514;13.440;2023-12-28T09:25:41;6.00;;;1.57;;
13197;SDS011;6664;52.514;13.440;2023-12-28T09:28:30;1.27;;;1.17;;
13197;SDS011;6664;52.514;13.440;2023-12-28T09:31:16;1.43;;;1.33;;
13197;SDS011;6664;52.514;13.440;2023-12-28T09:34:04;1.87;;;1.50;;
13197;SDS011;6664;52.514;13.440;2023-12-28T09:36:50;1.60;;;1.50;;
13197;SDS011;6664;52.514;13.440;2023-12-28T09:39:38;3.90;;;1.47;;
13197;SDS011;6664;52.514;13.440;2023-12-28T09:42:29;2.50;;;1.50;;
13197;SDS011;6664;52.514;13.440;2023-12-28T09:45:22;2.30;;;1.33;;
13197;SDS011;6664;52.514;13.440;2023-12-28T09:48:11;1.70;;;1.30;;
13197;SDS011;6664;52.514;13.440;2023-12-28T09:50:58;3.20;;;1.73;;
13197;SDS011;6664;52.514;13.440;2023-12-28T09:53:43;1.80;;;1.50;;
13197;SDS011;6664;52.514;13.440;2023-12-28T09:56:29;2.90;;;1.73;;
13197;SDS011;6664;52.514;13.440;2023-12-28T09:59:20;2.23;;;1.70;;
13197;SDS011;6664;52.514;13.440;2023-12-28T10:02:05;1.80;;;1.70;;
13197;SDS011;6664;52.514;13.440;2023-12-28T10:04:52;1.53;;;1.43;;
13197;SDS011;6664;52.514;13.440;2023-12-28T10:07:45;2.03;;;1.30;;
13197;SDS011;6664;52.514;13.440;2023-12-28T10:10:35;1.60;;;1.33;;
13197;SDS011;6664;52.514;13.440;2023-12-28T10:13:21;1.97;;;1.30;;
13197;SDS011;6664;52.514;13.440;2023-12-28T10:16:07;2.87;;;1.90;;
13197;SDS011;6664;52.514;13.440;2023-12-28T10:18:55;2.67;;;1.57;;
13197;SDS011;6664;52.514;13.440;2023-12-28T10:21:43;3.20;;;1.30;;
13197;SDS011;6664;52.514;13.440;2023-12-28T10:24:29;2.50;;;1.57;;
13197;SDS011;6664;52.514;13.440;2023-12-28T10:27:14;2.13;;;1.47;;
13197;SDS011;6664;52.514;13.440;2023-12-28T10:30:00;4.60;;;1.40;;
13197;SDS011;6664;52.514;13.440;2023-12-28T10:32:48;1.40;;;1.30;;
13197;SDS011;6664;52.514;13.440;2023-12-28T10:35:34;1.83;;;1.70;;
13197;SDS011;6664;52.514;13.440;2023-12-28T10:38:21;2.90;;;1.60;;
13197;SDS011;6664;52.514;13.440;2023-12-28T10:41:10;1.60;;;1.50;;
13197;SDS011;6664;52.514;13.440;2023-12-28T10:46:55;1.43;;;1.33;;
13197;SDS011;6664;52.514;13.440;2023-12-28T10:49:46;2.23;;;1.30;;
13197;SDS011;6664;52.514;13.440;2023-12-28T10:52:37;1.57;;;1.47;;
13197;SDS011;6664;52.514;13.440;2023-12-28T10:55:38;2.17;;;1.73;;
13197;SDS011;6664;52.514;13.440;2023-12-28T11:01:31;1.33;;;1.23;;
13197;SDS011;6664;52.514;13.440;2023-12-28T11:07:44;3.03;;;1.30;;
13197;SDS011;6664;52.514;13.440;2023-12-28T11:10:32;1.60;;;1.20;;
13197;SDS011;6664;52.514;13.440;2023-12-28T11:13:20;1.67;;;1.40;;
13197;SDS011;6664;52.514;13.440;2023-12-28T11:16:08;1.60;;;1.50;;
13197;SDS011;6664;52.514;13.440;2023-12-28T11:18:55;2.40;;;1.60;;
13197;SDS011;6664;52.514;13.440;2023-12-28T11:21:44;2.13;;;1.83;;
13197;SDS011;6664;52.514;13.440;2023-12-28T11:24:29;1.53;;;1.43;;
13197;SDS011;6664;52.514;13.440;2023-12-28T11:27:16;1.10;;;1.00;;
13197;SDS011;6664;52.514;13.440;2023-12-28T11:30:05;2.47;;;1.60;;
13197;SDS011;6664;52.514;13.440;2023-12-28T11:32:51;1.20;;;1.00;;
13197;SDS011;6664;52.514;13.440;2023-12-28T11:35:42;1.30;;;1.10;;
13197;SDS011;6664;52.514;13.440;2023-12-28T11:38:34;1.57;;;1.30;;
13197;SDS011;6664;52.514;13.440;2023-12-28T11:41:24;2.10;;;1.50;;
13197;SDS011;6664;52.514;13.440;2023-12-28T11:44:10;4.20;;;1.30;;
13197;SDS011;6664;52.514;13.440;2023-12-28T11:47:10;2.17;;;1.23;;
13197;SDS011;6664;52.514;13.440;2023-12-28T11:50:05;1.70;;;1.40;;
13197;SDS011;6664;52.514;13.440;2023-12-28T11:52:52;2.63;;;1.17;;
13197;SDS011;6664;52.514;13.440;2023-12-28T11:55:37;4.27;;;0.97;;
13197;SDS011;6664;52.514;13.440;2023-12-28T11:58:23;1.20;;;1.10;;
13197;SDS011;6664;52.514;13.440;2023-12-28T12:01:10;2.10;;;1.20;;
13197;SDS011;6664;52.514;13.440;2023-12-28T12:03:56;2.10;;;1.17;;
13197;SDS011;6664;52.514;13.440;2023-12-28T12:06:44;2.17;;;1.40;;
13197;SDS011;6664;52.514;13.440;2023-12-28T12:09:32;1.87;;;1.40;;
13197;SDS011;6664;52.514;13.440;2023-12-28T12:12:20;2.07;;;1.20;;
13197;SDS011;6664;52.514;13.440;2023-12-28T12:15:07;1.57;;;1.43;;
13197;SDS011;6664;52.514;13.440;2023-12-28T12:17:53;1.07;;;1.07;;
13197;SDS011;6664;52.514;13.440;2023-12-28T12:20:42;2.70;;;1.77;;
13197;SDS011;6664;52.514;13.440;2023-12-28T12:23:30;1.57;;;1.47;;
13197;SDS011;6664;52.514;13.440;2023-12-28T12:26:17;1.60;;;1.47;;
13197;SDS011;6664;52.514;13.440;2023-12-28T12:29:05;3.53;;;1.37;;
13197;SDS011;6664;52.514;13.440;2023-12-28T12:31:53;1.60;;;1.50;;
13197;SDS011;6664;52.514;13.440;2023-12-28T12:34:41;2.50;;;1.30;;
13197;SDS011;6664;52.514;13.440;2023-12-28T12:37:27;6.13;;;1.67;;
13197;SDS011;6664;52.514;13.440;2023-12-28T12:40:14;2.80;;;1.50;;
13197;SDS011;6664;52.514;13.440;2023-12-28T12:43:05;1.57;;;1.47;;
13197;SDS011;6664;52.514;13.440;2023-12-28T12:45:53;1.70;;;1.60;;
13197;SDS011;6664;52.514;13.440;2023-12-28T12:48:39;1.17;;;1.07;;
13197;SDS011;6664;52.514;13.440;2023-12-28T12:51:28;1.57;;;1.47;;
13197;SDS011;6664;52.514;13.440;2023-12-28T12:54:16;1.37;;;1.10;;
13197;SDS011;6664;52.514;13.440;2023-12-28T12:57:03;1.30;;;1.30;;
13197;SDS011;6664;52.514;13.440;2023-12-28T12:59:50;2.40;;;1.47;;
13197;SDS011;6664;52.514;13.440;2023-12-28T13:02:36;2.10;;;1.23;;
13197;SDS011;6664;52.514;13.440;2023-12-28T13:05:24;2.20;;;1.63;;
13197;SDS011;6664;52.514;13.440;2023-12-28T13:08:12;1.17;;;1.10;;
13197;SDS011;6664;52.514;13.440;2023-12-28T13:10:58;2.93;;;1.53;;
13197;SDS011;6664;52.514;13.440;2023-12-28T13:13:43;5.43;;;1.40;;
13197;SDS011;6664;52.514;13.440;2023-12-28T13:16:29;2.03;;;1.50;;
13197;SDS011;6664;52.514;13.440;2023-12-28T13:19:17;1.47;;;1.37;;
13197;SDS011;6664;52.514;13.440;2023-12-28T13:22:03;1.73;;;1.20;;
13197;SDS011;6664;52.514;13.440;2023-12-28T13:24:50;2.23;;;1.70;;
13197;SDS011;6664;52.514;13.440;2023-12-28T13:27:37;4.73;;;1.37;;
13197;SDS011;6664;52.514;13.440;2023-12-28T13:30:23;3.77;;;1.53;;
13197;SDS011;6664;52.514;13.440;2023-12-28T13:33:13;1.50;;;1.20;;
13197;SDS011;6664;52.514;13.440;2023-12-28T13:36:01;4.23;;;1.30;;
13197;SDS011;6664;52.514;13.440;2023-12-28T13:38:50;1.40;;;1.30;;
13197;SDS011;6664;52.514;13.440;2023-12-28T13:41:38;1.87;;;1.33;;
13197;SDS011;6664;52.514;13.440;2023-12-28T13:44:28;1.60;;;1.50;;
13197;SDS011;6664;52.514;13.440;2023-12-28T13:47:15;1.80;;;1.40;;
13197;SDS011;6664;52.514;13.440;2023-12-28T13:50:00;1.20;;;1.20;;
13197;SDS011;6664;52.514;13.440;2023-12-28T13:52:46;1.10;;;1.10;;
13197;SDS011;6664;52.514;13.440;2023-12-28T13:55:36;2.10;;;1.20;;
13197;SDS011;6664;52.514;13.440;2023-12-28T13:58:24;1.50;;;1.40;;
13197;SDS011;6664;52.514;13.440;2023-12-28T14:01:10;4.80;;;1.40;;
13197;SDS011;6664;52.514;13.440;2023-12-28T14:03:55;2.43;;;1.87;;
13197;SDS011;6664;52.514;13.440;2023-12-28T14:06:42;2.40;;;1.60;;
13197;SDS011;6664;52.514;13.440;2023-12-28T14:09:30;1.80;;;1.30;;
13197;SDS011;6664;52.514;13.440;2023-12-28T14:12:18;5.50;;;1.80;;
13197;SDS011;6664;52.514;13.440;2023-12-28T14:15:04;1.63;;;1.50;;
13197;SDS011;6664;52.514;13.440;2023-12-28T14:17:51;1.77;;;1.20;;
13197;SDS011;6664;52.514;13.440;2023-12-28T14:20:38;2.80;;;1.40;;
13197;SDS011;6664;52.514;13.440;2023-12-28T14:23:24;2.13;;;1.50;;
13197;SDS011;6664;52.514;13.440;2023-12-28T14:26:13;2.53;;;1.37;;
13197;SDS011;6664;52.514;13.440;2023-12-28T14:29:00;2.73;;;1.63;;
13197;SDS011;6664;52.514;13.440;2023-12-28T14:31:50;2.60;;;1.50;;
13197;SDS011;6664;52.514;13.440;2023-12-28T14:34:36;2.33;;;1.30;;
13197;SDS011;6664;52.514;13.440;2023-12-28T14:37:22;1.77;;;1.33;;
13197;SDS011;6664;52.514;13.440;2023-12-28T14:40:07;1.63;;;1.33;;
13197;SDS011;6664;52.514;13.440;2023-12-28T14:42:56;2.20;;;1.80;;
13197;SDS011;6664;52.514;13.440;2023-12-28T14:45:42;3.17;;;1.10;;
13197;SDS011;6664;52.514;13.440;2023-12-28T14:48:28;2.10;;;1.00;;
13197;SDS011;6664;52.514;13.440;2023-12-28T14:51:14;1.87;;;1.23;;
13197;SDS011;6664;52.514;13.440;2023-12-28T14:53:59;1.60;;;1.50;;
13197;SDS011;6664;52.514;13.440;2023-12-28T14:56:45;1.20;;;1.10;;
13197;SDS011;6664;52.514;13.440;2023-12-28T14:59:39;3.73;;;1.43;;
13197;SDS011;6664;52.514;13.440;2023-12-28T15:02:25;1.37;;;1.27;;
13197;SDS011;6664;52.514;13.440;2023-12-28T15:05:10;2.60;;;1.30;;
13197;SDS011;6664;52.514;13.440;2023-12-28T15:07:58;1.63;;;1.53;;
13197;SDS011;6664;52.514;13.440;2023-12-28T15:10:46;1.83;;;1.13;;
13197;SDS011;6664;52.514;13.440;2023-12-28T15:13:33;1.67;;;1.57;;
13197;SDS011;6664;52.514;13.440;2023-12-28T15:16:19;3.00;;;1.37;;
13197;SDS011;6664;52.514;13.440;2023-12-28T15:19:05;2.23;;;1.30;;
13197;SDS011;6664;52.514;13.440;2023-12-28T15:21:51;8.43;;;1.43;;
13197;SDS011;6664;52.514;13.440;2023-12-28T15:24:39;2.70;;;1.30;;
13197;SDS011;6664;52.514;13.440;2023-12-28T15:27:25;1.60;;;1.23;;
13197;SDS011;6664;52.514;13.440;2023-12-28T15:30:11;3.80;;;1.70;;
13197;SDS011;6664;52.514;13.440;2023-12-28T15:32:57;4.77;;;1.50;;
13197;SDS011;6664;52.514;13.440;2023-12-28T15:35:43;2.30;;;1.10;;
13197;SDS011;6664;52.514;13.440;2023-12-28T15:38:30;2.10;;;1.70;;
13197;SDS011;6664;52.514;13.440;2023-12-28T15:41:16;7.80;;;1.30;;
13197;SDS011;6664;52.514;13.440;2023-12-28T15:44:02;5.63;;;1.77;;
13197;SDS011;6664;52.514;13.440;2023-12-28T15:46:48;3.30;;;1.60;;
13197;SDS011;6664;52.514;13.440;2023-12-28T15:49:34;1.50;;;1.30;;
13197;SDS011;6664;52.514;13.440;2023-12-28T15:52:20;2.97;;;1.47;;
13197;SDS011;6664;52.514;13.440;2023-12-28T15:55:06;3.00;;;1.70;;
13197;SDS011;6664;52.514;13.440;2023-12-28T15:57:55;3.90;;;1.73;;
13197;SDS011;6664;52.514;13.440;2023-12-28T16:00:43;1.77;;;1.37;;
13197;SDS011;6664;52.514;13.440;2023-12-28T16:03:29;1.23;;;1.13;;
13197;SDS011;6664;52.514;13.440;2023-12-28T16:06:15;2.70;;;1.70;;
13197;SDS011;6664;52.514;13.440;2023-12-28T16:09:00;3.73;;;1.30;;
13197;SDS011;6664;52.514;13.440;2023-12-28T16:11:46;1.90;;;1.77;;
13197;SDS011;6664;52.514;13.440;2023-12-28T16:14:32;2.70;;;1.37;;
13197;SDS011;6664;52.514;13.440;2023-12-28T16:17:18;4.07;;;1.80;;
13197;SDS011;6664;52.514;13.440;2023-12-28T16:20:04;3.90;;;1.67;;
13197;SDS011;6664;52.514;13.440;2023-12-28T16:22:50;5.53;;;1.57;;
13197;SDS011;6664;52.514;13.440;2023-12-28T16:25:36;1.57;;;1.47;;
13197;SDS011;6664;52.514;13.440;2023-12-28T16:28:22;3.47;;;1.47;;
13197;SDS011;6664;52.514;13.440;2023-12-28T16:31:08;3.10;;;1.20;;
13197;SDS011;6664;52.514;13.440;2023-12-28T16:33:56;2.87;;;1.40;;
13197;SDS011;6664;52.514;13.440;2023-12-28T16:36:44;2.80;;;1.60;;
13197;SDS011;6664;52.514;13.440;2023-12-28T16:39:30;3.63;;;1.33;;
13197;SDS011;6664;52.514;13.440;2023-12-28T16:42:16;2.30;;;1.53;;
13197;SDS011;6664;52.514;13.440;2023-12-28T16:45:04;1.73;;;1.63;;
13197;SDS011;6664;52.514;13.440;2023-12-28T16:47:50;3.50;;;1.40;;
13197;SDS011;6664;52.514;13.440;2023-12-28T16:50:39;3.47;;;1.30;;
13197;SDS011;6664;52.514;13.440;2023-12-28T16:53:30;2.20;;;1.70;;
13197;SDS011;6664;52.514;13.440;2023-12-28T16:56:18;1.20;;;1.20;;
13197;SDS011;6664;52.514;13.440;2023-12-28T16:59:04;1.80;;;1.43;;